N257MC KLAX-KTUS
Flight info
| Callsign | N257MC |
|---|---|
| Flight time | 1h 29m |
| Altitude | 29000 |
| Route | DOTSS2 CNERY BLH J50 GBN DINGO6 |
| Aircraft | SF50/L-SDGRWY/L |
Departure
| Time | 2026-04-24 02:17 |
|---|---|
| Airport | Los Angeles International Airport (KLAX) |
Arrival
| Time | 2026-04-24 03:46 |
|---|---|
| Airport | Tucson International Airport (KTUS) |
| Time | Latitude | Longitude | Altitude | Speed | Heading |
|---|---|---|---|---|---|
| 2026-04-24 02:06 | 33.93383 | -118.39552 | 87 ft | 0 kts | 83° |
| 2026-04-24 02:11 | 33.93384 | -118.39544 | 88 ft | 3 kts | 83° |
| 2026-04-24 02:11 | 33.93391 | -118.39487 | 87 ft | 11 kts | 79° |
| 2026-04-24 02:11 | 33.93420 | -118.39414 | 87 ft | 9 kts | 41° |
| 2026-04-24 02:12 | 33.93482 | -118.39352 | 89 ft | 21 kts | 44° |
| 2026-04-24 02:12 | 33.93521 | -118.39185 | 87 ft | 21 kts | 83° |
| 2026-04-24 02:12 | 33.93537 | -118.39007 | 89 ft | 28 kts | 84° |
| 2026-04-24 02:12 | 33.93565 | -118.38753 | 87 ft | 30 kts | 82° |
| 2026-04-24 02:13 | 33.93587 | -118.38531 | 88 ft | 25 kts | 84° |
| 2026-04-24 02:13 | 33.93605 | -118.38341 | 88 ft | 20 kts | 83° |
| 2026-04-24 02:13 | 33.93644 | -118.38280 | 89 ft | 2 kts | 348° |
| 2026-04-24 02:13 | 33.93646 | -118.38281 | 92 ft | 0 kts | 332° |
| 2026-04-24 02:16 | 33.93695 | -118.38289 | 91 ft | 14 kts | 348° |
| 2026-04-24 02:16 | 33.93726 | -118.38378 | 90 ft | 13 kts | 264° |
| 2026-04-24 02:16 | 33.93685 | -118.38795 | 98 ft | 89 kts | 262° |
| 2026-04-24 02:16 | 33.93606 | -118.39627 | 552 ft | 116 kts | 263° |
| 2026-04-24 02:17 | 33.93487 | -118.40746 | 1086 ft | 149 kts | 262° |
| 2026-04-24 02:17 | 33.93351 | -118.42031 | 2035 ft | 156 kts | 264° |
| 2026-04-24 02:17 | 33.93211 | -118.43340 | 3033 ft | 162 kts | 264° |
| 2026-04-24 02:17 | 33.93069 | -118.44698 | 3690 ft | 168 kts | 263° |
| 2026-04-24 02:18 | 33.92688 | -118.46048 | 4292 ft | 175 kts | 238° |
| 2026-04-24 02:18 | 33.91935 | -118.47220 | 4907 ft | 181 kts | 233° |
| 2026-04-24 02:18 | 33.91124 | -118.48536 | 5004 ft | 209 kts | 233° |
| 2026-04-24 02:18 | 33.89919 | -118.49398 | 5677 ft | 197 kts | 186° |
| 2026-04-24 02:19 | 33.88621 | -118.49338 | 6555 ft | 184 kts | 178° |
| 2026-04-24 02:19 | 33.87327 | -118.49441 | 7109 ft | 188 kts | 188° |
| 2026-04-24 02:19 | 33.86027 | -118.49657 | 7706 ft | 189 kts | 189° |
| 2026-04-24 02:19 | 33.84722 | -118.49853 | 8330 ft | 189 kts | 190° |
| 2026-04-24 02:20 | 33.83414 | -118.50048 | 8945 ft | 190 kts | 190° |
| 2026-04-24 02:20 | 33.82104 | -118.50241 | 9561 ft | 190 kts | 191° |
| 2026-04-24 02:20 | 33.80782 | -118.50439 | 10138 ft | 192 kts | 191° |
| 2026-04-24 02:20 | 33.79455 | -118.50634 | 10679 ft | 193 kts | 192° |
| 2026-04-24 02:21 | 33.78117 | -118.50834 | 11215 ft | 195 kts | 193° |
| 2026-04-24 02:21 | 33.76764 | -118.51033 | 11747 ft | 196 kts | 193° |
| 2026-04-24 02:21 | 33.75403 | -118.51236 | 12284 ft | 198 kts | 194° |
| 2026-04-24 02:21 | 33.74031 | -118.51437 | 12813 ft | 199 kts | 194° |
| 2026-04-24 02:22 | 33.72636 | -118.51566 | 13317 ft | 206 kts | 185° |
| 2026-04-24 02:22 | 33.71223 | -118.51184 | 13821 ft | 217 kts | 167° |
| 2026-04-24 02:22 | 33.69897 | -118.50249 | 14269 ft | 227 kts | 146° |
| 2026-04-24 02:22 | 33.68853 | -118.48788 | 14711 ft | 236 kts | 124° |
| 2026-04-24 02:23 | 33.68210 | -118.46926 | 15150 ft | 240 kts | 111° |
| 2026-04-24 02:23 | 33.67662 | -118.45055 | 15577 ft | 242 kts | 112° |
| 2026-04-24 02:23 | 33.67084 | -118.43145 | 16010 ft | 244 kts | 112° |
| 2026-04-24 02:23 | 33.66514 | -118.41219 | 16436 ft | 246 kts | 112° |
| 2026-04-24 02:24 | 33.65938 | -118.39275 | 16861 ft | 248 kts | 112° |
| 2026-04-24 02:24 | 33.65357 | -118.37317 | 17280 ft | 250 kts | 112° |
| 2026-04-24 02:24 | 33.64773 | -118.35341 | 17684 ft | 253 kts | 112° |
| 2026-04-24 02:24 | 33.64455 | -118.33247 | 18051 ft | 258 kts | 91° |
| 2026-04-24 02:25 | 33.64483 | -118.31088 | 18419 ft | 260 kts | 89° |
| 2026-04-24 02:25 | 33.64474 | -118.28915 | 18765 ft | 261 kts | 90° |
| 2026-04-24 02:25 | 33.64466 | -118.26730 | 19115 ft | 263 kts | 90° |
| 2026-04-24 02:25 | 33.64471 | -118.24533 | 19462 ft | 264 kts | 90° |
| 2026-04-24 02:26 | 33.64472 | -118.22324 | 19811 ft | 265 kts | 90° |
| 2026-04-24 02:26 | 33.64473 | -118.20099 | 20154 ft | 267 kts | 90° |
| 2026-04-24 02:26 | 33.64474 | -118.17865 | 20487 ft | 268 kts | 90° |
| 2026-04-24 02:26 | 33.64472 | -118.15621 | 20824 ft | 270 kts | 90° |
| 2026-04-24 02:27 | 33.64473 | -118.13370 | 21186 ft | 270 kts | 90° |
| 2026-04-24 02:27 | 33.64471 | -118.11122 | 21573 ft | 269 kts | 90° |
| 2026-04-24 02:27 | 33.64470 | -118.08876 | 21945 ft | 269 kts | 90° |
| 2026-04-24 02:27 | 33.64469 | -118.06630 | 22329 ft | 269 kts | 90° |
| 2026-04-24 02:28 | 33.64465 | -118.04380 | 22694 ft | 269 kts | 90° |
| 2026-04-24 02:28 | 33.64464 | -118.02128 | 23068 ft | 269 kts | 90° |
| 2026-04-24 02:28 | 33.64460 | -117.99886 | 23450 ft | 269 kts | 90° |
| 2026-04-24 02:28 | 33.64457 | -117.97636 | 23782 ft | 269 kts | 90° |
| 2026-04-24 02:29 | 33.64454 | -117.95392 | 24093 ft | 269 kts | 90° |
| 2026-04-24 02:29 | 33.64448 | -117.93144 | 24398 ft | 269 kts | 90° |
| 2026-04-24 02:29 | 33.64445 | -117.90895 | 24713 ft | 270 kts | 90° |
| 2026-04-24 02:29 | 33.64439 | -117.88645 | 25030 ft | 270 kts | 90° |
| 2026-04-24 02:30 | 33.64434 | -117.86392 | 25353 ft | 270 kts | 90° |
| 2026-04-24 02:30 | 33.64429 | -117.84140 | 25681 ft | 270 kts | 91° |
| 2026-04-24 02:30 | 33.64421 | -117.81887 | 26013 ft | 270 kts | 91° |
| 2026-04-24 02:30 | 33.64375 | -117.79633 | 26333 ft | 270 kts | 98° |
| 2026-04-24 02:31 | 33.63905 | -117.77479 | 26661 ft | 266 kts | 112° |
| 2026-04-24 02:31 | 33.63370 | -117.75350 | 26998 ft | 266 kts | 110° |
| 2026-04-24 02:31 | 33.62872 | -117.73236 | 27325 ft | 267 kts | 110° |
| 2026-04-24 02:31 | 33.62342 | -117.71075 | 27664 ft | 267 kts | 111° |
| 2026-04-24 02:32 | 33.61820 | -117.68968 | 28005 ft | 267 kts | 111° |
| 2026-04-24 02:32 | 33.61292 | -117.66830 | 28352 ft | 267 kts | 111° |
| 2026-04-24 02:32 | 33.60765 | -117.64688 | 28701 ft | 267 kts | 111° |
| 2026-04-24 02:32 | 33.60231 | -117.62519 | 28996 ft | 270 kts | 111° |
| 2026-04-24 02:33 | 33.59685 | -117.60335 | 28999 ft | 284 kts | 111° |
| 2026-04-24 02:33 | 33.59115 | -117.58022 | 29008 ft | 294 kts | 110° |
| 2026-04-24 02:33 | 33.57921 | -117.53184 | 29005 ft | 310 kts | 110° |
| 2026-04-24 02:34 | 33.57259 | -117.47978 | 29005 ft | 327 kts | 88° |
| 2026-04-24 02:34 | 33.57388 | -117.42411 | 29005 ft | 340 kts | 90° |
| 2026-04-24 02:35 | 33.57489 | -117.36660 | 29004 ft | 349 kts | 89° |
| 2026-04-24 02:35 | 33.57600 | -117.30794 | 28999 ft | 354 kts | 89° |
| 2026-04-24 02:36 | 33.57704 | -117.24845 | 28997 ft | 359 kts | 89° |
| 2026-04-24 02:36 | 33.57808 | -117.18833 | 28978 ft | 363 kts | 89° |
| 2026-04-24 02:37 | 33.57912 | -117.12775 | 28995 ft | 363 kts | 90° |
| 2026-04-24 02:37 | 33.57995 | -117.07762 | 28995 ft | 361 kts | 90° |
| 2026-04-24 02:38 | 33.58090 | -117.01747 | 28997 ft | 360 kts | 90° |
| 2026-04-24 02:38 | 33.58185 | -116.95751 | 28992 ft | 359 kts | 90° |
| 2026-04-24 02:39 | 33.58274 | -116.89760 | 28988 ft | 360 kts | 90° |
| 2026-04-24 02:39 | 33.58362 | -116.83727 | 28970 ft | 363 kts | 90° |
| 2026-04-24 02:40 | 33.58449 | -116.77664 | 28969 ft | 365 kts | 90° |
| 2026-04-24 02:40 | 33.58531 | -116.71604 | 28955 ft | 363 kts | 90° |
| 2026-04-24 02:41 | 33.58610 | -116.65541 | 28941 ft | 364 kts | 90° |
| 2026-04-24 02:41 | 33.58690 | -116.59479 | 28911 ft | 364 kts | 90° |
| 2026-04-24 02:42 | 33.58760 | -116.53406 | 28909 ft | 363 kts | 90° |
| 2026-04-24 02:42 | 33.58832 | -116.47383 | 28886 ft | 359 kts | 90° |
| 2026-04-24 02:43 | 33.58898 | -116.41382 | 28883 ft | 361 kts | 90° |
| 2026-04-24 02:43 | 33.58965 | -116.35351 | 28878 ft | 363 kts | 91° |
| 2026-04-24 02:44 | 33.59021 | -116.29308 | 28884 ft | 361 kts | 91° |
| 2026-04-24 02:44 | 33.59083 | -116.23315 | 28853 ft | 360 kts | 91° |
| 2026-04-24 02:45 | 33.59138 | -116.17289 | 28858 ft | 362 kts | 91° |
| 2026-04-24 02:45 | 33.59191 | -116.11307 | 28836 ft | 360 kts | 91° |
| 2026-04-24 02:46 | 33.59240 | -116.05315 | 28838 ft | 358 kts | 91° |
| 2026-04-24 02:46 | 33.59287 | -115.99346 | 28842 ft | 358 kts | 91° |
| 2026-04-24 02:47 | 33.59330 | -115.93363 | 28848 ft | 360 kts | 91° |
| 2026-04-24 02:47 | 33.59371 | -115.87328 | 28853 ft | 364 kts | 91° |
| 2026-04-24 02:48 | 33.59411 | -115.81264 | 28852 ft | 363 kts | 91° |
| 2026-04-24 02:48 | 33.59446 | -115.75218 | 28857 ft | 361 kts | 91° |
| 2026-04-24 02:49 | 33.59478 | -115.69214 | 28855 ft | 360 kts | 91° |
| 2026-04-24 02:49 | 33.59506 | -115.63186 | 28868 ft | 363 kts | 91° |
| 2026-04-24 02:50 | 33.59534 | -115.57123 | 28867 ft | 364 kts | 91° |
| 2026-04-24 02:50 | 33.59558 | -115.51027 | 28870 ft | 365 kts | 91° |
| 2026-04-24 02:51 | 33.59580 | -115.44949 | 28871 ft | 364 kts | 91° |
| 2026-04-24 02:51 | 33.59596 | -115.38903 | 28869 ft | 362 kts | 91° |
| 2026-04-24 02:52 | 33.59612 | -115.32907 | 28886 ft | 361 kts | 91° |
| 2026-04-24 02:52 | 33.59623 | -115.26848 | 28872 ft | 365 kts | 91° |
| 2026-04-24 02:53 | 33.59632 | -115.20699 | 28872 ft | 367 kts | 91° |
| 2026-04-24 02:53 | 33.59638 | -115.14568 | 28875 ft | 368 kts | 91° |
| 2026-04-24 02:54 | 33.59643 | -115.08483 | 28879 ft | 367 kts | 91° |
| 2026-04-24 02:54 | 33.59642 | -115.02376 | 28871 ft | 366 kts | 91° |
| 2026-04-24 02:55 | 33.59638 | -114.96279 | 28877 ft | 367 kts | 91° |
| 2026-04-24 02:55 | 33.59633 | -114.90142 | 28884 ft | 369 kts | 91° |
| 2026-04-24 02:56 | 33.59624 | -114.83973 | 28882 ft | 370 kts | 91° |
| 2026-04-24 02:56 | 33.59611 | -114.77816 | 28881 ft | 368 kts | 91° |
| 2026-04-24 02:57 | 33.59221 | -114.71744 | 28880 ft | 365 kts | 99° |
| 2026-04-24 02:57 | 33.58683 | -114.65663 | 28882 ft | 368 kts | 98° |
| 2026-04-24 02:58 | 33.58136 | -114.59546 | 28882 ft | 369 kts | 98° |
| 2026-04-24 02:58 | 33.57592 | -114.53451 | 28878 ft | 367 kts | 98° |
| 2026-04-24 02:59 | 33.57044 | -114.47370 | 28874 ft | 366 kts | 98° |
| 2026-04-24 02:59 | 33.56494 | -114.41307 | 28870 ft | 365 kts | 98° |
| 2026-04-24 03:00 | 33.55942 | -114.35248 | 28861 ft | 364 kts | 98° |
| 2026-04-24 03:00 | 33.55392 | -114.29229 | 28865 ft | 363 kts | 98° |
| 2026-04-24 03:01 | 33.54839 | -114.23245 | 28869 ft | 365 kts | 98° |
| 2026-04-24 03:01 | 33.54279 | -114.17192 | 28871 ft | 366 kts | 98° |
| 2026-04-24 03:02 | 33.53715 | -114.11116 | 28872 ft | 367 kts | 98° |
| 2026-04-24 03:02 | 33.53146 | -114.05038 | 28879 ft | 365 kts | 98° |
| 2026-04-24 03:03 | 33.52581 | -113.99041 | 28885 ft | 361 kts | 98° |
| 2026-04-24 03:03 | 33.52013 | -113.93044 | 28908 ft | 362 kts | 98° |
| 2026-04-24 03:04 | 33.51444 | -113.87044 | 28933 ft | 362 kts | 98° |
| 2026-04-24 03:04 | 33.50870 | -113.81043 | 28955 ft | 363 kts | 98° |
| 2026-04-24 03:05 | 33.50293 | -113.75038 | 28977 ft | 363 kts | 98° |
| 2026-04-24 03:05 | 33.49714 | -113.69032 | 28999 ft | 363 kts | 98° |
| 2026-04-24 03:06 | 33.49129 | -113.63026 | 29008 ft | 362 kts | 98° |
| 2026-04-24 03:06 | 33.48545 | -113.57031 | 29008 ft | 362 kts | 98° |
| 2026-04-24 03:07 | 33.47961 | -113.51071 | 28999 ft | 363 kts | 98° |
| 2026-04-24 03:07 | 33.47368 | -113.45060 | 28981 ft | 363 kts | 98° |
| 2026-04-24 03:08 | 33.47070 | -113.42051 | 28879 ft | 363 kts | 98° |
| 2026-04-24 03:08 | 33.46191 | -113.36184 | 28834 ft | 354 kts | 114° |
| 2026-04-24 03:08 | 33.45126 | -113.33547 | 28855 ft | 349 kts | 127° |
| 2026-04-24 03:09 | 33.43666 | -113.31267 | 28859 ft | 344 kts | 139° |
| 2026-04-24 03:09 | 33.40460 | -113.26989 | 28862 ft | 346 kts | 138° |
| 2026-04-24 03:10 | 33.37248 | -113.22682 | 28858 ft | 348 kts | 139° |
| 2026-04-24 03:10 | 33.34026 | -113.18373 | 28859 ft | 346 kts | 139° |
| 2026-04-24 03:11 | 33.30819 | -113.14093 | 28857 ft | 345 kts | 139° |
| 2026-04-24 03:11 | 33.27625 | -113.09831 | 28857 ft | 344 kts | 138° |
| 2026-04-24 03:12 | 33.24423 | -113.05567 | 28854 ft | 346 kts | 139° |
| 2026-04-24 03:12 | 33.21192 | -113.01266 | 28859 ft | 349 kts | 139° |
| 2026-04-24 03:13 | 33.17932 | -112.96937 | 28862 ft | 351 kts | 139° |
| 2026-04-24 03:13 | 33.14681 | -112.92618 | 28864 ft | 349 kts | 139° |
| 2026-04-24 03:14 | 33.11441 | -112.88322 | 28861 ft | 347 kts | 139° |
| 2026-04-24 03:14 | 33.08212 | -112.84047 | 28861 ft | 346 kts | 139° |
| 2026-04-24 03:15 | 33.05000 | -112.79799 | 28866 ft | 348 kts | 140° |
| 2026-04-24 03:15 | 33.01738 | -112.75490 | 28922 ft | 352 kts | 140° |
| 2026-04-24 03:16 | 32.98454 | -112.71155 | 28930 ft | 353 kts | 140° |
| 2026-04-24 03:16 | 32.96959 | -112.68810 | 28920 ft | 361 kts | 127° |
| 2026-04-24 03:16 | 32.95869 | -112.66096 | 28915 ft | 367 kts | 114° |
| 2026-04-24 03:16 | 32.95248 | -112.63138 | 28910 ft | 371 kts | 101° |
| 2026-04-24 03:17 | 32.94977 | -112.60086 | 28912 ft | 370 kts | 97° |
| 2026-04-24 03:17 | 32.94424 | -112.53996 | 28910 ft | 370 kts | 98° |
| 2026-04-24 03:18 | 32.93879 | -112.47902 | 28881 ft | 370 kts | 98° |
| 2026-04-24 03:18 | 32.93323 | -112.41805 | 28895 ft | 370 kts | 97° |
| 2026-04-24 03:19 | 32.92769 | -112.35719 | 28895 ft | 370 kts | 97° |
| 2026-04-24 03:19 | 32.92212 | -112.29644 | 28879 ft | 370 kts | 97° |
| 2026-04-24 03:20 | 32.91648 | -112.23537 | 28880 ft | 373 kts | 97° |
| 2026-04-24 03:20 | 32.91080 | -112.17391 | 28883 ft | 375 kts | 97° |
| 2026-04-24 03:21 | 32.90503 | -112.11216 | 28901 ft | 375 kts | 98° |
| 2026-04-24 03:21 | 32.89927 | -112.05069 | 28907 ft | 373 kts | 98° |
| 2026-04-24 03:22 | 32.89351 | -111.98938 | 28914 ft | 372 kts | 98° |
| 2026-04-24 03:22 | 32.88157 | -111.93020 | 28909 ft | 366 kts | 119° |
| 2026-04-24 03:22 | 32.86897 | -111.90467 | 28912 ft | 360 kts | 133° |
| 2026-04-24 03:23 | 32.85256 | -111.88275 | 28915 ft | 351 kts | 146° |
| 2026-04-24 03:23 | 32.81380 | -111.84915 | 28912 ft | 344 kts | 155° |
| 2026-04-24 03:24 | 32.77479 | -111.81661 | 28731 ft | 338 kts | 155° |
| 2026-04-24 03:24 | 32.75555 | -111.80075 | 28567 ft | 335 kts | 155° |
| 2026-04-24 03:24 | 32.73644 | -111.78504 | 28429 ft | 335 kts | 155° |
| 2026-04-24 03:24 | 32.71734 | -111.76923 | 28293 ft | 334 kts | 155° |
| 2026-04-24 03:25 | 32.69826 | -111.75344 | 28160 ft | 333 kts | 155° |
| 2026-04-24 03:25 | 32.67925 | -111.73778 | 28023 ft | 333 kts | 155° |
| 2026-04-24 03:25 | 32.66013 | -111.72202 | 27837 ft | 335 kts | 155° |
| 2026-04-24 03:25 | 32.64091 | -111.70619 | 27610 ft | 337 kts | 155° |
| 2026-04-24 03:26 | 32.62822 | -111.69571 | 27474 ft | 336 kts | 155° |
| 2026-04-24 03:26 | 32.60908 | -111.67991 | 27267 ft | 335 kts | 155° |
| 2026-04-24 03:26 | 32.58998 | -111.66419 | 27063 ft | 334 kts | 155° |
| 2026-04-24 03:26 | 32.57091 | -111.64852 | 26859 ft | 333 kts | 155° |
| 2026-04-24 03:27 | 32.55250 | -111.63152 | 26651 ft | 342 kts | 145° |
| 2026-04-24 03:27 | 32.53671 | -111.60981 | 26431 ft | 352 kts | 133° |
| 2026-04-24 03:27 | 32.52217 | -111.58637 | 26204 ft | 356 kts | 133° |
| 2026-04-24 03:27 | 32.50733 | -111.56282 | 25735 ft | 356 kts | 133° |
| 2026-04-24 03:28 | 32.49174 | -111.54057 | 25293 ft | 346 kts | 142° |
| 2026-04-24 03:28 | 32.47377 | -111.52195 | 24633 ft | 344 kts | 148° |
| 2026-04-24 03:28 | 32.45565 | -111.50366 | 24020 ft | 341 kts | 147° |
| 2026-04-24 03:28 | 32.43779 | -111.48530 | 23402 ft | 339 kts | 146° |
| 2026-04-24 03:29 | 32.42000 | -111.46705 | 22679 ft | 337 kts | 146° |
| 2026-04-24 03:29 | 32.40216 | -111.44895 | 22034 ft | 338 kts | 146° |
| 2026-04-24 03:29 | 32.38429 | -111.43079 | 21472 ft | 340 kts | 146° |
| 2026-04-24 03:29 | 32.36634 | -111.41249 | 20931 ft | 341 kts | 145° |
| 2026-04-24 03:30 | 32.34843 | -111.39422 | 20473 ft | 340 kts | 145° |
| 2026-04-24 03:30 | 32.33044 | -111.37594 | 20006 ft | 341 kts | 144° |
| 2026-04-24 03:30 | 32.31244 | -111.35765 | 19602 ft | 341 kts | 144° |
| 2026-04-24 03:30 | 32.29449 | -111.33939 | 19201 ft | 340 kts | 144° |
| 2026-04-24 03:31 | 32.27658 | -111.32120 | 18817 ft | 339 kts | 143° |
| 2026-04-24 03:31 | 32.25869 | -111.30304 | 18432 ft | 339 kts | 143° |
| 2026-04-24 03:31 | 32.24081 | -111.28492 | 18026 ft | 339 kts | 143° |
| 2026-04-24 03:31 | 32.22290 | -111.26676 | 17585 ft | 339 kts | 143° |
| 2026-04-24 03:32 | 32.20504 | -111.24864 | 17152 ft | 339 kts | 143° |
| 2026-04-24 03:32 | 32.18711 | -111.23050 | 16720 ft | 340 kts | 143° |
| 2026-04-24 03:32 | 32.16917 | -111.21232 | 16292 ft | 338 kts | 143° |
| 2026-04-24 03:32 | 32.15140 | -111.19433 | 15871 ft | 335 kts | 143° |
| 2026-04-24 03:33 | 32.13397 | -111.17672 | 15461 ft | 333 kts | 144° |
| 2026-04-24 03:33 | 32.11649 | -111.15905 | 15178 ft | 331 kts | 143° |
| 2026-04-24 03:33 | 32.09902 | -111.14141 | 14745 ft | 330 kts | 143° |
| 2026-04-24 03:33 | 32.08162 | -111.12383 | 14283 ft | 328 kts | 143° |
| 2026-04-24 03:34 | 32.06434 | -111.10637 | 13818 ft | 326 kts | 143° |
| 2026-04-24 03:34 | 32.04718 | -111.08907 | 13337 ft | 323 kts | 143° |
| 2026-04-24 03:34 | 32.03019 | -111.07195 | 12888 ft | 319 kts | 143° |
| 2026-04-24 03:34 | 32.01342 | -111.05502 | 12441 ft | 315 kts | 143° |
| 2026-04-24 03:35 | 31.99697 | -111.03843 | 11998 ft | 302 kts | 143° |
| 2026-04-24 03:35 | 31.98175 | -111.02303 | 11590 ft | 275 kts | 143° |
| 2026-04-24 03:35 | 31.96788 | -111.00908 | 11225 ft | 250 kts | 143° |
| 2026-04-24 03:35 | 31.95518 | -110.99633 | 10905 ft | 231 kts | 143° |
| 2026-04-24 03:36 | 31.94335 | -110.98446 | 10621 ft | 216 kts | 143° |
| 2026-04-24 03:36 | 31.93221 | -110.97318 | 10391 ft | 208 kts | 141° |
| 2026-04-24 03:36 | 31.92192 | -110.96111 | 10152 ft | 209 kts | 139° |
| 2026-04-24 03:36 | 31.91179 | -110.94920 | 9901 ft | 203 kts | 139° |
| 2026-04-24 03:37 | 31.90191 | -110.93763 | 9648 ft | 198 kts | 139° |
| 2026-04-24 03:37 | 31.89220 | -110.92625 | 9414 ft | 195 kts | 139° |
| 2026-04-24 03:37 | 31.88311 | -110.91478 | 9186 ft | 190 kts | 128° |
| 2026-04-24 03:37 | 31.87786 | -110.90057 | 8951 ft | 190 kts | 104° |
| 2026-04-24 03:38 | 31.87730 | -110.88514 | 8703 ft | 189 kts | 81° |
| 2026-04-24 03:38 | 31.88148 | -110.87065 | 8460 ft | 187 kts | 58° |
| 2026-04-24 03:38 | 31.88946 | -110.85918 | 8231 ft | 177 kts | 40° |
| 2026-04-24 03:38 | 31.89812 | -110.84922 | 8018 ft | 172 kts | 43° |
| 2026-04-24 03:39 | 31.90640 | -110.83932 | 7809 ft | 168 kts | 42° |
| 2026-04-24 03:39 | 31.91462 | -110.82965 | 7593 ft | 166 kts | 42° |
| 2026-04-24 03:39 | 31.92275 | -110.82006 | 7385 ft | 166 kts | 42° |
| 2026-04-24 03:39 | 31.93096 | -110.81045 | 7159 ft | 167 kts | 43° |
| 2026-04-24 03:40 | 31.93946 | -110.80043 | 6913 ft | 180 kts | 41° |
| 2026-04-24 03:40 | 31.94838 | -110.79015 | 6646 ft | 176 kts | 37° |
| 2026-04-24 03:40 | 31.95857 | -110.78355 | 6417 ft | 165 kts | 13° |
| 2026-04-24 03:40 | 31.96955 | -110.78172 | 6202 ft | 156 kts | 353° |
| 2026-04-24 03:41 | 31.97971 | -110.78417 | 6045 ft | 146 kts | 336° |
| 2026-04-24 03:41 | 31.98831 | -110.78997 | 5848 ft | 140 kts | 319° |
| 2026-04-24 03:41 | 31.99518 | -110.79790 | 5662 ft | 137 kts | 313° |
| 2026-04-24 03:41 | 32.00206 | -110.80583 | 5475 ft | 137 kts | 314° |
| 2026-04-24 03:42 | 32.00883 | -110.81368 | 5286 ft | 136 kts | 311° |
| 2026-04-24 03:42 | 32.01556 | -110.82155 | 5105 ft | 136 kts | 311° |
| 2026-04-24 03:42 | 32.02227 | -110.82943 | 4924 ft | 137 kts | 311° |
| 2026-04-24 03:42 | 32.02893 | -110.83719 | 4741 ft | 137 kts | 312° |
| 2026-04-24 03:43 | 32.03563 | -110.84503 | 4561 ft | 134 kts | 313° |
| 2026-04-24 03:43 | 32.04222 | -110.85272 | 4403 ft | 129 kts | 313° |
| 2026-04-24 03:43 | 32.04840 | -110.86000 | 4258 ft | 127 kts | 313° |
| 2026-04-24 03:43 | 32.05444 | -110.86699 | 4117 ft | 113 kts | 313° |
| 2026-04-24 03:44 | 32.05981 | -110.87339 | 3976 ft | 111 kts | 313° |
| 2026-04-24 03:44 | 32.06550 | -110.88004 | 3825 ft | 119 kts | 313° |
| 2026-04-24 03:44 | 32.07136 | -110.88687 | 3660 ft | 114 kts | 312° |
| 2026-04-24 03:44 | 32.07684 | -110.89332 | 3469 ft | 116 kts | 314° |
| 2026-04-24 03:45 | 32.08264 | -110.90011 | 3285 ft | 118 kts | 313° |
| 2026-04-24 03:45 | 32.08850 | -110.90690 | 3082 ft | 115 kts | 313° |
| 2026-04-24 03:45 | 32.09389 | -110.91363 | 2952 ft | 109 kts | 313° |
| 2026-04-24 03:45 | 32.09909 | -110.91964 | 2769 ft | 103 kts | 315° |
| 2026-04-24 03:46 | 32.10399 | -110.92525 | 2616 ft | 89 kts | 315° |
| 2026-04-24 03:46 | 32.10772 | -110.92961 | 2600 ft | 65 kts | 316° |
| 2026-04-24 03:46 | 32.11055 | -110.93280 | 2601 ft | 49 kts | 315° |
| 2026-04-24 03:46 | 32.11276 | -110.93543 | 2605 ft | 41 kts | 314° |
| 2026-04-24 03:47 | 32.11451 | -110.93749 | 2601 ft | 36 kts | 315° |
| 2026-04-24 03:47 | 32.11623 | -110.93882 | 2599 ft | 27 kts | 4° |
| 2026-04-24 03:47 | 32.11782 | -110.93881 | 2594 ft | 22 kts | 311° |
| 2026-04-24 03:47 | 32.11872 | -110.93999 | 2599 ft | 17 kts | 312° |
| 2026-04-24 03:48 | 32.11953 | -110.94096 | 2599 ft | 17 kts | 315° |
| 2026-04-24 03:48 | 32.12043 | -110.94200 | 2602 ft | 19 kts | 315° |
| 2026-04-24 03:48 | 32.12135 | -110.94304 | 2602 ft | 17 kts | 317° |
| 2026-04-24 03:48 | 32.12228 | -110.94342 | 2599 ft | 15 kts | 14° |
| 2026-04-24 03:49 | 32.12322 | -110.94326 | 2599 ft | 12 kts | 342° |
| 2026-04-24 03:49 | 32.12342 | -110.94343 | 2593 ft | 0 kts | 320° |